CG Frank Drew — NKDL — position and weather

sailwx.info

Track history (hours):
 
Tides and Currents Weather Stations Pressure Air Temp Water Temp Dewpoint Dewpoint Depression Visibility Wind Speed Wind Dir Waves Ship Positions

CG Frank Drew

Last reported at 2018-Apr-20 16:07 UTC. Time now 2018-Apr-21 06:09 UTC.
Position N 36°53' W 076°21'.

Length 53 m; draft 2.7 m.

Type: Law enforcement. MMSI: 368731000.

Date/timePositionNaut miles runAvg speedWind from/ knotsBaromVisibWave heightAir tempDewpointWater temp
2018-Apr-20 16:07N 36°53' W 076°21'1 5.3
2018-Apr-20 16:00N 36°53' W 076°20'6510.4
2018-Apr-20 09:42N 37°58' W 076°17'311.3
2018-Apr-20 09:24N 37°60' W 076°21'3 7.1
2018-Apr-20 09:00N 38°00' W 076°25'0 0.1
2018-Apr-20 08:26N 38°00' W 076°24'0 0.0
2018-Apr-20 07:59N 38°00' W 076°24'0 0.0
2018-Apr-20 07:13N 38°00' W 076°24'0 0.0
2018-Apr-20 06:59N 38°00' W 076°24'0 0.0
2018-Apr-20 06:27N 38°00' W 076°24'0 0.0
2018-Apr-20 04:47N 38°00' W 076°24'0 0.0
2018-Apr-20 04:26N 38°00' W 076°24'0 0.0
2018-Apr-20 03:59N 38°00' W 076°24'0 0.0
2018-Apr-20 03:22N 38°00' W 076°24'0 0.0
2018-Apr-20 03:00N 38°00' W 076°24'0 0.0
2018-Apr-20 02:19N 38°00' W 076°24'0 0.0
2018-Apr-20 01:56N 38°00' W 076°24'0 0.0
2018-Apr-20 01:27N 38°00' W 076°24'0 0.0
2018-Apr-20 00:54N 38°00' W 076°24'1 2.5
2018-Apr-20 00:30N 38°01' W 076°25'611.9
2018-Apr-19 23:57N 38°06' W 076°31'43 3.5
2018-Apr-19 11:38N 38°37' W 077°08'3 7.4
2018-Apr-19 11:14N 38°40' W 077°08'3 8.7
2018-Apr-19 10:56N 38°41' W 077°06'0 0.0
2018-Apr-19 10:27N 38°42' W 077°06'0 0.0
2018-Apr-19 10:00N 38°41' W 077°06'0 0.0
2018-Apr-19 09:27N 38°41' W 077°06'0 0.0
2018-Apr-19 08:45N 38°41' W 077°06'0 0.0
2018-Apr-19 08:27N 38°41' W 077°06'0 0.0
2018-Apr-19 08:00N 38°41' W 077°06'0 0.0
2018-Apr-19 07:20N 38°41' W 077°06'0 0.0
2018-Apr-19 06:56N 38°41' W 077°06'0 0.0
2018-Apr-19 06:09N 38°41' W 077°06'0 0.0
2018-Apr-19 06:00N 38°41' W 077°06'0 0.0
2018-Apr-19 05:27N 38°41' W 077°06'0 0.0
2018-Apr-19 04:57N 38°41' W 077°06'0 0.0
2018-Apr-19 04:24N 38°42' W 077°06'0 0.0
2018-Apr-19 04:00N 38°42' W 077°06'0 0.0
2018-Apr-19 03:30N 38°42' W 077°06'0 0.0
2018-Apr-19 03:00N 38°42' W 077°06'0 0.0
2018-Apr-19 02:30N 38°42' W 077°06'0 0.0
2018-Apr-19 01:57N 38°42' W 077°06'0 0.0
2018-Apr-19 01:27N 38°42' W 077°06'1 1.3
2018-Apr-19 00:50N 38°42' W 077°05'2 4.1
2018-Apr-19 00:28N 38°42' W 077°03'2 3.1
2018-Apr-18 23:51N 38°42' W 077°05'1 1.1
2018-Apr-18 22:51N 38°41' W 077°07'1 3.0
2018-Apr-18 22:25N 38°40' W 077°08'0 0.8
2018-Apr-18 21:55N 38°40' W 077°08'4 1.6
2018-Apr-18 19:40N 38°37' W 077°09'3 2.7
2018-Apr-18 18:34N 38°39' W 077°08'0 0.1
2018-Apr-18 18:30N 38°39' W 077°08'0 0.0
2018-Apr-17 21:48N 38°40' W 077°08'310.7
2018-Apr-17 21:30N 38°42' W 077°05'3 5.7
2018-Apr-17 20:57N 38°44' W 077°02'2 3.5
2018-Apr-17 20:30N 38°46' W 077°02'1 1.7
2018-Apr-17 20:00N 38°47' W 077°02'1 2.5
2018-Apr-17 19:30N 38°48' W 077°02'1 1.5
2018-Apr-17 18:56N 38°49' W 077°02'1 2.2
2018-Apr-17 18:26N 38°50' W 077°02'1 1.9
2018-Apr-17 17:59N 38°51' W 077°01'0 0.9
2018-Apr-17 17:30N 38°51' W 077°01'1 1.2
2018-Apr-17 16:58N 38°50' W 077°01'2 5.0
2018-Apr-17 16:28N 38°48' W 077°02'0 0.0
2018-Apr-17 15:58N 38°48' W 077°02'0 0.0
2018-Apr-17 15:28N 38°48' W 077°02'2 3.3
2018-Apr-17 15:00N 38°46' W 077°02'5 9.5
2018-Apr-17 14:30N 38°42' W 077°04'7 1.3
2018-Apr-17 09:05N 38°36' W 077°09'0 0.0
2018-Apr-17 08:53N 38°36' W 077°09'0 0.0
2018-Apr-17 08:29N 38°36' W 077°09'0 0.0
2018-Apr-17 07:59N 38°36' W 077°09'0 0.0
2018-Apr-17 07:28N 38°36' W 077°09'0 0.0
2018-Apr-17 06:55N 38°36' W 077°09'0 0.1
2018-Apr-17 06:28N 38°36' W 077°09'0 0.0
2018-Apr-17 05:58N 38°36' W 077°09'0 0.0
2018-Apr-17 05:28N 38°36' W 077°09'0 0.0
2018-Apr-17 03:16N 38°36' W 077°09'0 0.0
2018-Apr-17 02:58N 38°36' W 077°09'0 0.0
2018-Apr-17 01:01N 38°36' W 077°09'0 0.1
2018-Apr-17 00:55N 38°36' W 077°09'0 0.0
2018-Apr-16 23:56N 38°36' W 077°09'41 1.5
2018-Apr-15 20:57N 38°07' W 076°33'611.9
2018-Apr-15 20:29N 38°04' W 076°27'611.9
2018-Apr-15 20:00N 38°01' W 076°21'6510.2
2018-Apr-15 13:39N 36°57' W 076°20'211.3
2018-Apr-15 13:30N 36°55' W 076°20'  
2018-Apr-12 15:27N 36°53' W 076°21'3 1.9
2018-Apr-12 13:57N 36°56' W 076°20'4 9.2
2018-Apr-12 13:30N 36°52' W 076°19'0 0.3
2018-Apr-12 13:00N 36°52' W 076°19'0 0.5
2018-Apr-12 12:30N 36°52' W 076°19'2 2.2
2018-Apr-12 11:38N 36°53' W 076°21'0 0.0
2018-Apr-12 04:09N 36°53' W 076°21'0 0.0
2018-Apr-11 23:44N 36°53' W 076°21'0 0.0
2018-Apr-11 23:20N 36°53' W 076°21'  
Track history (hours):
 
Tides and Currents Weather Stations Pressure Air Temp Water Temp Dewpoint Dewpoint Depression Visibility Wind Speed Wind Dir Waves Ship Positions

CG Frank Drew

Last reported at 2018-Apr-20 16:07 UTC. Time now 2018-Apr-21 06:09 UTC.
Position N 36°53' W 076°21'.

Length 53 m; draft 2.7 m.

Type: Law enforcement. MMSI: 368731000.

Date/timePositionNaut miles runAvg speedWind from/ knotsBaromVisibWave heightAir tempDewpointWater temp
2018-Apr-20 16:07N 36°53' W 076°21'1 5.3
2018-Apr-20 16:00N 36°53' W 076°20'6510.4
2018-Apr-20 09:42N 37°58' W 076°17'311.3
2018-Apr-20 09:24N 37°60' W 076°21'3 7.1
2018-Apr-20 09:00N 38°00' W 076°25'0 0.1
2018-Apr-20 08:26N 38°00' W 076°24'0 0.0
2018-Apr-20 07:59N 38°00' W 076°24'0 0.0
2018-Apr-20 07:13N 38°00' W 076°24'0 0.0
2018-Apr-20 06:59N 38°00' W 076°24'0 0.0
2018-Apr-20 06:27N 38°00' W 076°24'0 0.0
2018-Apr-20 04:47N 38°00' W 076°24'0 0.0
2018-Apr-20 04:26N 38°00' W 076°24'0 0.0
2018-Apr-20 03:59N 38°00' W 076°24'0 0.0
2018-Apr-20 03:22N 38°00' W 076°24'0 0.0
2018-Apr-20 03:00N 38°00' W 076°24'0 0.0
2018-Apr-20 02:19N 38°00' W 076°24'0 0.0
2018-Apr-20 01:56N 38°00' W 076°24'0 0.0
2018-Apr-20 01:27N 38°00' W 076°24'0 0.0
2018-Apr-20 00:54N 38°00' W 076°24'1 2.5
2018-Apr-20 00:30N 38°01' W 076°25'611.9
2018-Apr-19 23:57N 38°06' W 076°31'43 3.5
2018-Apr-19 11:38N 38°37' W 077°08'3 7.4
2018-Apr-19 11:14N 38°40' W 077°08'3 8.7
2018-Apr-19 10:56N 38°41' W 077°06'0 0.0
2018-Apr-19 10:27N 38°42' W 077°06'0 0.0
2018-Apr-19 10:00N 38°41' W 077°06'0 0.0
2018-Apr-19 09:27N 38°41' W 077°06'0 0.0
2018-Apr-19 08:45N 38°41' W 077°06'0 0.0
2018-Apr-19 08:27N 38°41' W 077°06'0 0.0
2018-Apr-19 08:00N 38°41' W 077°06'0 0.0
2018-Apr-19 07:20N 38°41' W 077°06'0 0.0
2018-Apr-19 06:56N 38°41' W 077°06'0 0.0
2018-Apr-19 06:09N 38°41' W 077°06'0 0.0
2018-Apr-19 06:00N 38°41' W 077°06'0 0.0
2018-Apr-19 05:27N 38°41' W 077°06'0 0.0
2018-Apr-19 04:57N 38°41' W 077°06'0 0.0
2018-Apr-19 04:24N 38°42' W 077°06'0 0.0
2018-Apr-19 04:00N 38°42' W 077°06'0 0.0
2018-Apr-19 03:30N 38°42' W 077°06'0 0.0
2018-Apr-19 03:00N 38°42' W 077°06'0 0.0
2018-Apr-19 02:30N 38°42' W 077°06'0 0.0
2018-Apr-19 01:57N 38°42' W 077°06'0 0.0
2018-Apr-19 01:27N 38°42' W 077°06'1 1.3
2018-Apr-19 00:50N 38°42' W 077°05'2 4.1
2018-Apr-19 00:28N 38°42' W 077°03'2 3.1
2018-Apr-18 23:51N 38°42' W 077°05'1 1.1
2018-Apr-18 22:51N 38°41' W 077°07'1 3.0
2018-Apr-18 22:25N 38°40' W 077°08'0 0.8
2018-Apr-18 21:55N 38°40' W 077°08'4 1.6
2018-Apr-18 19:40N 38°37' W 077°09'3 2.7
2018-Apr-18 18:34N 38°39' W 077°08'0 0.1
2018-Apr-18 18:30N 38°39' W 077°08'0 0.0
2018-Apr-17 21:48N 38°40' W 077°08'310.7
2018-Apr-17 21:30N 38°42' W 077°05'3 5.7
2018-Apr-17 20:57N 38°44' W 077°02'2 3.5
2018-Apr-17 20:30N 38°46' W 077°02'1 1.7
2018-Apr-17 20:00N 38°47' W 077°02'1 2.5
2018-Apr-17 19:30N 38°48' W 077°02'1 1.5
2018-Apr-17 18:56N 38°49' W 077°02'1 2.2
2018-Apr-17 18:26N 38°50' W 077°02'1 1.9
2018-Apr-17 17:59N 38°51' W 077°01'0 0.9
2018-Apr-17 17:30N 38°51' W 077°01'1 1.2
2018-Apr-17 16:58N 38°50' W 077°01'2 5.0
2018-Apr-17 16:28N 38°48' W 077°02'0 0.0
2018-Apr-17 15:58N 38°48' W 077°02'0 0.0
2018-Apr-17 15:28N 38°48' W 077°02'2 3.3
2018-Apr-17 15:00N 38°46' W 077°02'5 9.5
2018-Apr-17 14:30N 38°42' W 077°04'7 1.3
2018-Apr-17 09:05N 38°36' W 077°09'0 0.0
2018-Apr-17 08:53N 38°36' W 077°09'0 0.0
2018-Apr-17 08:29N 38°36' W 077°09'0 0.0
2018-Apr-17 07:59N 38°36' W 077°09'0 0.0
2018-Apr-17 07:28N 38°36' W 077°09'0 0.0
2018-Apr-17 06:55N 38°36' W 077°09'0 0.1
2018-Apr-17 06:28N 38°36' W 077°09'0 0.0
2018-Apr-17 05:58N 38°36' W 077°09'0 0.0
2018-Apr-17 05:28N 38°36' W 077°09'0 0.0
2018-Apr-17 03:16N 38°36' W 077°09'0 0.0
2018-Apr-17 02:58N 38°36' W 077°09'0 0.0
2018-Apr-17 01:01N 38°36' W 077°09'0 0.1
2018-Apr-17 00:55N 38°36' W 077°09'0 0.0
2018-Apr-16 23:56N 38°36' W 077°09'41 1.5
2018-Apr-15 20:57N 38°07' W 076°33'611.9
2018-Apr-15 20:29N 38°04' W 076°27'611.9
2018-Apr-15 20:00N 38°01' W 076°21'6510.2
2018-Apr-15 13:39N 36°57' W 076°20'211.3
2018-Apr-15 13:30N 36°55' W 076°20'  
2018-Apr-12 15:27N 36°53' W 076°21'3 1.9
2018-Apr-12 13:57N 36°56' W 076°20'4 9.2
2018-Apr-12 13:30N 36°52' W 076°19'0 0.3
2018-Apr-12 13:00N 36°52' W 076°19'0 0.5
2018-Apr-12 12:30N 36°52' W 076°19'2 2.2
2018-Apr-12 11:38N 36°53' W 076°21'0 0.0
2018-Apr-12 04:09N 36°53' W 076°21'0 0.0
2018-Apr-11 23:44N 36°53' W 076°21'0 0.0
2018-Apr-11 23:20N 36°53' W 076°21'  

Dump ship's entire track history